createdAt,value
2018-04-15T00:00:34.122Z,13.20
2018-04-15T00:03:01.657Z,13.20
2018-04-15T00:05:29.909Z,13.10
2018-04-15T00:07:57.470Z,13.10
2018-04-15T00:10:24.949Z,13.10
2018-04-15T00:12:52.470Z,13.00
2018-04-15T00:15:20.717Z,13.00
2018-04-15T00:17:48.229Z,13.00
2018-04-15T00:20:16.518Z,13.00
2018-04-15T00:22:44.770Z,12.90
2018-04-15T00:25:12.294Z,12.90
2018-04-15T00:27:39.777Z,12.90
2018-04-15T00:30:07.294Z,12.90
2018-04-15T00:32:34.790Z,12.90
2018-04-15T00:35:02.309Z,12.90
2018-04-15T00:37:29.794Z,12.90
2018-04-15T00:39:57.321Z,12.90
2018-04-15T00:42:24.811Z,12.90
2018-04-15T00:44:52.329Z,12.80
2018-04-15T00:47:19.811Z,12.80
2018-04-15T00:49:48.096Z,12.80
2018-04-15T00:52:15.591Z,12.80
2018-04-15T00:54:43.110Z,12.80
2018-04-15T00:57:10.599Z,12.70
2018-04-15T00:59:38.500Z,12.70
2018-04-15T01:02:05.998Z,12.70
2018-04-15T01:04:33.497Z,12.70
2018-04-15T01:07:01.036Z,12.60
2018-04-15T01:09:28.521Z,12.60
2018-04-15T01:11:56.037Z,12.60
2018-04-15T01:14:23.517Z,12.60
2018-04-15T01:16:51.049Z,12.60
2018-04-15T01:19:18.530Z,12.50
2018-04-15T01:21:46.076Z,12.50
2018-04-15T01:24:13.626Z,12.50
2018-04-15T01:26:41.911Z,12.50
2018-04-15T01:29:09.401Z,12.50
2018-04-15T01:31:36.940Z,12.50
2018-04-15T01:34:05.257Z,12.50
2018-04-15T01:36:32.769Z,12.50
2018-04-15T01:39:00.257Z,12.50
2018-04-15T01:41:27.800Z,12.40
2018-04-15T01:43:55.281Z,12.40
2018-04-15T01:46:22.771Z,12.40
2018-04-15T01:48:50.329Z,12.40
2018-04-15T01:51:17.818Z,12.40
2018-04-15T01:53:45.335Z,12.50
2018-04-15T01:56:12.817Z,12.40
2018-04-15T01:58:40.397Z,12.40
2018-04-15T02:01:07.897Z,12.40
2018-04-15T02:03:35.418Z,12.40
2018-04-15T02:06:02.906Z,12.40
2018-04-15T02:08:31.193Z,12.30
2018-04-15T02:10:58.683Z,12.30
2018-04-15T02:13:26.464Z,12.30
2018-04-15T02:15:53.954Z,12.30
2018-04-15T02:18:21.471Z,12.30
2018-04-15T02:20:48.950Z,12.30
2018-04-15T02:23:16.497Z,12.30
2018-04-15T02:25:44.749Z,12.30
2018-04-15T02:28:12.233Z,12.30
2018-04-15T02:30:39.738Z,12.30
2018-04-15T02:33:07.234Z,12.30
2018-04-15T02:35:34.778Z,12.30
2018-04-15T02:38:02.295Z,12.30
2018-04-15T02:40:29.861Z,12.40
2018-04-15T02:42:57.349Z,12.40
2018-04-15T02:45:24.901Z,12.40
2018-04-15T02:47:52.424Z,12.40
2018-04-15T02:50:20.713Z,12.30
2018-04-15T02:52:48.198Z,12.30
2018-04-15T02:55:15.730Z,12.30
2018-04-15T02:57:43.214Z,12.20
2018-04-15T03:00:10.726Z,12.20
2018-04-15T03:02:39.109Z,12.20
2018-04-15T03:05:06.628Z,12.10
2018-04-15T03:07:34.113Z,12.10
2018-04-15T03:10:01.645Z,12.10
2018-04-15T03:12:29.139Z,12.10
2018-04-15T03:14:56.690Z,12.10
2018-04-15T03:17:24.170Z,12.20
2018-04-15T03:19:51.659Z,12.20
2018-04-15T03:22:19.175Z,12.20
2018-04-15T03:24:46.673Z,12.30
2018-04-15T03:27:14.190Z,12.30
2018-04-15T03:29:41.687Z,12.20
2018-04-15T03:32:09.202Z,12.20
2018-04-15T03:34:36.877Z,12.20
2018-04-15T03:37:04.406Z,12.10
2018-04-15T03:39:31.897Z,12.10
2018-04-15T03:41:59.416Z,12.00
2018-04-15T03:44:26.897Z,12.00
2018-04-15T03:46:54.418Z,12.00
2018-04-15T03:49:21.922Z,12.00
2018-04-15T03:51:49.461Z,12.10
2018-04-15T03:54:16.946Z,12.10
2018-04-15T03:56:44.426Z,12.10
2018-04-15T03:59:11.944Z,12.00
2018-04-15T04:01:39.430Z,12.00
2018-04-15T04:04:06.981Z,12.00
2018-04-15T04:06:34.466Z,11.90
2018-04-15T04:09:01.983Z,11.90
2018-04-15T04:11:29.469Z,11.90
2018-04-15T04:13:57.770Z,11.90
2018-04-15T04:16:25.389Z,11.90
2018-04-15T04:22:10.461Z,11.80
2018-04-15T04:24:50.601Z,11.80
2018-04-15T04:27:18.862Z,11.80
2018-04-15T04:29:46.370Z,11.80
2018-04-15T04:32:13.922Z,11.80
2018-04-15T04:34:41.461Z,11.80
2018-04-15T04:37:08.962Z,11.80
2018-04-15T04:39:36.493Z,11.80
2018-04-15T04:42:04.774Z,11.80
2018-04-15T04:44:33.034Z,11.80
2018-04-15T04:47:00.561Z,11.80
2018-04-15T04:49:28.053Z,11.80
2018-04-15T04:51:55.581Z,11.80
2018-04-15T04:54:23.840Z,12.00
2018-04-15T04:56:51.359Z,12.00
2018-04-15T04:59:18.858Z,12.00
2018-04-15T05:01:46.392Z,12.00
2018-04-15T05:04:13.880Z,12.00
2018-04-15T05:06:41.397Z,12.00
2018-04-15T05:09:08.885Z,12.00
2018-04-15T05:11:37.180Z,12.00
2018-04-15T05:14:04.674Z,12.00
2018-04-15T05:16:32.202Z,12.00
2018-04-15T05:18:59.710Z,12.00
2018-04-15T05:21:27.341Z,12.00
2018-04-15T05:23:54.875Z,12.00
2018-04-15T05:26:22.595Z,12.00
2018-04-15T05:28:50.888Z,12.10
2018-04-15T05:31:18.395Z,12.10
2018-04-15T05:33:45.999Z,12.10
2018-04-15T05:36:13.533Z,12.10
2018-04-15T05:38:41.838Z,12.20
2018-04-15T05:41:09.450Z,12.20
2018-04-15T05:43:37.848Z,12.20
2018-04-15T05:46:05.478Z,12.20
2018-04-15T05:48:33.074Z,12.20
2018-04-15T05:51:00.651Z,12.30
2018-04-15T05:53:28.356Z,12.30
2018-04-15T05:55:55.879Z,12.30
2018-04-15T05:58:23.691Z,12.20
2018-04-15T06:00:51.247Z,12.20
2018-04-15T06:03:18.900Z,12.20
2018-04-15T06:05:46.401Z,12.20
2018-04-15T06:08:13.945Z,12.20
2018-04-15T06:10:41.542Z,12.10
2018-04-15T06:13:09.074Z,12.10
2018-04-15T06:15:36.610Z,12.20
2018-04-15T06:18:04.101Z,12.20
2018-04-15T06:20:32.393Z,12.20
2018-04-15T06:23:00.661Z,12.30
2018-04-15T06:25:28.181Z,12.30
2018-04-15T06:27:55.694Z,12.40
2018-04-15T06:30:23.256Z,12.50
2018-04-15T06:32:50.743Z,12.60
2018-04-15T06:35:18.274Z,12.60
2018-04-15T06:37:45.770Z,12.70
2018-04-15T06:40:13.289Z,12.80
2018-04-15T06:42:41.603Z,13.00
2018-04-15T06:45:09.150Z,13.00
2018-04-15T06:47:36.631Z,13.20
2018-04-15T06:50:04.179Z,13.30
2018-04-15T06:52:31.676Z,13.30
2018-04-15T06:54:59.169Z,13.20
2018-04-15T06:57:26.694Z,13.10
2018-04-15T06:59:54.949Z,16.10
2018-04-15T07:02:22.463Z,16.10
2018-04-15T07:04:50.778Z,22.10
2018-04-15T07:07:18.302Z,22.00
2018-04-15T07:09:45.873Z,23.60
2018-04-15T07:12:13.396Z,25.40
2018-04-15T07:14:40.886Z,26.80
2018-04-15T07:17:09.171Z,28.10
2018-04-15T07:19:36.681Z,28.00
2018-04-15T07:22:04.986Z,27.30
2018-04-15T07:24:33.238Z,27.40
2018-04-15T07:27:00.752Z,27.30
2018-04-15T07:29:30.665Z,27.40
2018-04-15T07:31:58.966Z,27.80
2018-04-15T07:34:39.342Z,27.80
2018-04-15T07:37:06.866Z,27.80
2018-04-15T07:39:34.370Z,28.30
2018-04-15T07:42:01.900Z,29.40
2018-04-15T07:44:29.396Z,30.50
2018-04-15T07:46:56.918Z,30.80
2018-04-15T07:49:24.415Z,31.00
2018-04-15T07:51:52.008Z,30.00
2018-04-15T07:54:19.533Z,28.10
2018-04-15T07:56:47.861Z,28.00
2018-04-15T07:59:15.378Z,28.00
2018-04-15T08:01:43.641Z,28.50
2018-04-15T08:04:11.294Z,28.50
2018-04-15T08:06:38.810Z,27.30
2018-04-15T08:09:06.343Z,27.10
2018-04-15T08:11:33.882Z,26.00
2018-04-15T08:14:01.414Z,27.20
2018-04-15T08:16:28.919Z,26.60
2018-04-15T08:18:56.449Z,24.80
2018-04-15T08:21:23.937Z,23.70
2018-04-15T08:23:52.236Z,24.80
2018-04-15T08:26:20.506Z,26.60
2018-04-15T08:28:48.797Z,27.30
2018-04-15T08:31:16.274Z,27.20
2018-04-15T08:33:44.558Z,29.90
2018-04-15T08:36:12.043Z,29.90
2018-04-15T08:38:40.326Z,31.10
2018-04-15T08:41:08.619Z,30.10
2018-04-15T08:43:36.870Z,29.40
2018-04-15T08:46:04.397Z,29.40
2018-04-15T08:48:31.885Z,28.30
2018-04-15T08:50:59.421Z,27.10
2018-04-15T08:53:27.674Z,26.20
2018-04-15T08:55:55.190Z,26.20
2018-04-15T08:58:23.443Z,24.10
2018-04-15T09:00:50.977Z,24.00
2018-04-15T09:03:18.499Z,23.60
2018-04-15T09:05:46.015Z,22.90
2018-04-15T09:08:13.509Z,21.80
2018-04-15T09:10:41.039Z,22.80
2018-04-15T09:13:09.293Z,22.00
2018-04-15T09:15:36.810Z,21.90
2018-04-15T09:18:04.293Z,21.10
2018-04-15T09:20:31.814Z,21.60
2018-04-15T09:22:59.310Z,21.30
2018-04-15T09:25:27.610Z,22.20
2018-04-15T09:27:55.097Z,22.20
2018-04-15T09:30:22.591Z,22.90
2018-04-15T09:32:50.120Z,24.50
2018-04-15T09:35:17.603Z,25.70
2018-04-15T09:37:45.109Z,26.20
2018-04-15T09:40:12.585Z,26.90
2018-04-15T09:42:40.119Z,26.70
2018-04-15T09:45:07.606Z,26.10
2018-04-15T09:47:35.148Z,26.10
2018-04-15T09:50:02.632Z,25.80
2018-04-15T09:52:30.196Z,25.90
2018-04-15T09:55:02.546Z,25.60
2018-04-15T09:57:30.256Z,25.50
2018-04-15T10:00:10.434Z,25.10
2018-04-15T10:02:37.945Z,25.60
2018-04-15T10:05:05.434Z,26.70
2018-04-15T10:07:32.949Z,25.60
2018-04-15T10:10:00.434Z,26.70
2018-04-15T10:12:28.730Z,27.80
2018-04-15T10:14:56.249Z,27.70
2018-04-15T10:17:24.507Z,28.80
2018-04-15T10:19:52.024Z,28.70
2018-04-15T10:22:19.506Z,28.80
2018-04-15T10:24:47.022Z,28.90
2018-04-15T10:27:14.503Z,28.60
2018-04-15T10:29:42.025Z,27.50
2018-04-15T10:32:09.587Z,26.80
2018-04-15T10:34:37.420Z,27.10
2018-04-15T10:37:05.411Z,27.80
2018-04-15T10:39:33.089Z,27.40
2018-04-15T10:42:00.587Z,26.90
2018-04-15T10:44:28.878Z,24.50
2018-04-15T10:46:56.361Z,24.50
2018-04-15T10:49:23.885Z,23.50
2018-04-15T10:51:51.372Z,23.00
2018-04-15T10:54:19.663Z,25.30
2018-04-15T10:56:47.159Z,25.30
2018-04-15T10:59:17.339Z,25.90
2018-04-15T11:01:44.867Z,26.30
2018-04-15T11:04:12.387Z,26.20
2018-04-15T11:06:39.900Z,25.50
2018-04-15T11:09:07.404Z,24.80
2018-04-15T11:11:34.917Z,24.30
2018-04-15T11:14:02.437Z,23.80
2018-04-15T11:16:30.041Z,23.10
2018-04-15T11:18:57.534Z,22.80
2018-04-15T11:21:25.095Z,22.50
2018-04-15T11:23:52.582Z,22.40
2018-04-15T11:26:20.098Z,22.00
2018-04-15T11:28:47.576Z,21.60
2018-04-15T11:31:15.106Z,21.60
2018-04-15T11:33:44.201Z,21.20
2018-04-15T11:36:11.713Z,21.20
2018-04-15T11:38:39.224Z,21.60
2018-04-15T11:41:06.774Z,21.60
2018-04-15T11:43:34.269Z,21.60
2018-04-15T11:46:01.769Z,21.90
2018-04-15T11:48:29.294Z,21.80
2018-04-15T11:50:56.783Z,21.60
2018-04-15T11:53:25.098Z,21.60
2018-04-15T11:55:53.349Z,21.40
2018-04-15T11:58:20.890Z,21.40
2018-04-15T12:00:48.452Z,21.40
2018-04-15T12:03:15.973Z,21.20
2018-04-15T12:05:43.446Z,21.10
2018-04-15T12:08:11.075Z,21.10
2018-04-15T12:10:38.559Z,21.00
2018-04-15T12:13:06.079Z,21.00
2018-04-15T12:15:34.041Z,21.20
2018-04-15T12:18:01.575Z,21.00
2018-04-15T12:20:29.064Z,21.10
2018-04-15T12:22:56.614Z,20.90
2018-04-15T12:25:24.102Z,20.80
2018-04-15T12:27:51.625Z,20.70
2018-04-15T12:30:19.194Z,20.90
2018-04-15T12:32:46.850Z,21.20
2018-04-15T12:35:14.338Z,21.40
2018-04-15T12:37:41.878Z,21.30
2018-04-15T12:40:09.418Z,21.30
2018-04-15T12:42:36.915Z,21.20
2018-04-15T12:45:04.446Z,21.50
2018-04-15T12:47:32.696Z,21.80
2018-04-15T12:50:00.242Z,21.80
2018-04-15T12:52:27.745Z,21.60
2018-04-15T12:54:55.296Z,21.60
2018-04-15T12:57:22.774Z,21.80
2018-04-15T12:59:50.254Z,22.00
2018-04-15T13:02:17.835Z,21.90
2018-04-15T13:04:45.394Z,22.10
2018-04-15T13:07:12.929Z,22.20
2018-04-15T13:09:51.738Z,22.00
2018-04-15T13:12:19.294Z,22.10
2018-04-15T13:14:46.859Z,22.00
2018-04-15T13:17:15.413Z,21.70
2018-04-15T13:19:42.964Z,21.40
2018-04-15T13:22:10.619Z,21.40
2018-04-15T13:24:38.070Z,21.40
2018-04-15T13:27:05.699Z,21.60
2018-04-15T13:29:33.358Z,21.40
2018-04-15T13:32:01.694Z,21.30
2018-04-15T13:34:29.229Z,21.30
2018-04-15T13:36:56.818Z,21.40
2018-04-15T13:39:24.348Z,21.50
2018-04-15T13:41:51.933Z,21.40
2018-04-15T13:44:19.497Z,21.20
2018-04-15T13:46:47.048Z,21.40
2018-04-15T13:49:14.591Z,21.90
2018-04-15T13:51:42.178Z,22.10
2018-04-15T13:54:09.822Z,22.10
2018-04-15T13:56:37.317Z,21.80
2018-04-15T13:59:04.943Z,21.70
2018-04-15T14:01:33.258Z,21.10
2018-04-15T14:04:00.831Z,21.10
2018-04-15T14:06:28.431Z,21.10
2018-04-15T14:08:56.015Z,21.30
2018-04-15T14:11:24.421Z,20.90
2018-04-15T14:13:52.033Z,20.90
2018-04-15T14:16:19.558Z,20.90
2018-04-15T14:18:47.166Z,21.00
2018-04-15T14:21:15.539Z,20.90
2018-04-15T14:23:43.673Z,20.90
2018-04-15T14:26:11.276Z,20.90
2018-04-15T14:28:38.787Z,21.00
2018-04-15T14:31:07.218Z,21.10
2018-04-15T14:33:34.724Z,21.10
2018-04-15T14:36:02.330Z,21.00
2018-04-15T14:38:30.667Z,21.20
2018-04-15T14:40:58.288Z,21.10
2018-04-15T14:43:25.827Z,21.30
2018-04-15T14:45:53.521Z,21.20
2018-04-15T14:48:21.041Z,21.20
2018-04-15T14:50:48.590Z,21.20
2018-04-15T14:53:16.671Z,21.20
2018-04-15T14:55:45.137Z,21.20
2018-04-15T14:58:13.477Z,21.40
2018-04-15T15:00:41.223Z,21.50
2018-04-15T15:03:08.915Z,21.40
2018-04-15T15:05:37.369Z,21.50
2018-04-15T15:08:04.878Z,21.50
2018-04-15T15:10:33.316Z,21.40
2018-04-15T15:13:00.835Z,21.40
2018-04-15T15:15:29.089Z,21.50
2018-04-15T15:17:56.650Z,21.40
2018-04-15T15:20:24.135Z,21.50
2018-04-15T15:22:51.654Z,21.60
2018-04-15T15:25:19.134Z,21.60
2018-04-15T15:27:46.641Z,21.50
2018-04-15T15:30:14.151Z,21.40
2018-04-15T15:32:42.409Z,21.30
2018-04-15T15:35:09.931Z,21.30
2018-04-15T15:37:37.458Z,21.20
2018-04-15T15:40:04.940Z,21.20
2018-04-15T15:42:32.473Z,21.10
2018-04-15T15:45:00.726Z,21.10
2018-04-15T15:47:28.276Z,21.00
2018-04-15T15:49:56.525Z,20.90
2018-04-15T15:52:24.042Z,20.90
2018-04-15T15:54:52.289Z,20.90
2018-04-15T15:57:19.810Z,20.90
2018-04-15T15:59:47.368Z,20.90
2018-04-15T16:02:14.846Z,20.90
2018-04-15T16:04:43.136Z,20.80
2018-04-15T16:07:10.616Z,20.80
2018-04-15T16:09:38.142Z,20.80
2018-04-15T16:12:06.407Z,20.80
2018-04-15T16:14:34.065Z,20.80
2018-04-15T16:17:01.548Z,20.80
2018-04-15T16:19:29.782Z,20.80
2018-04-15T16:21:57.313Z,20.80
2018-04-15T16:24:24.843Z,20.60
2018-04-15T16:26:53.088Z,20.40
2018-04-15T16:29:20.586Z,20.40
2018-04-15T16:31:48.898Z,20.20
2018-04-15T16:34:17.944Z,20.20
2018-04-15T16:36:46.524Z,20.00
2018-04-15T16:39:14.007Z,20.00
2018-04-15T16:41:41.532Z,19.90
2018-04-15T16:44:09.050Z,19.70
2018-04-15T16:46:36.686Z,19.60
2018-04-15T16:49:04.174Z,19.50
2018-04-15T16:51:32.505Z,19.30
2018-04-15T16:54:00.006Z,19.20
2018-04-15T16:56:27.521Z,19.10
2018-04-15T16:58:55.043Z,18.90
2018-04-15T17:01:22.566Z,18.80
2018-04-15T17:03:50.115Z,18.60
2018-04-15T17:06:17.677Z,18.40
2018-04-15T17:08:45.154Z,18.30
2018-04-15T17:11:13.461Z,18.00
2018-04-15T17:13:41.002Z,18.00
2018-04-15T17:16:08.601Z,17.80
2018-04-15T17:18:36.065Z,17.60
2018-04-15T17:21:03.629Z,17.40
2018-04-15T17:23:31.141Z,17.30
2018-04-15T17:25:58.642Z,17.10
2018-04-15T17:28:26.190Z,17.00
2018-04-15T17:30:53.689Z,16.90
2018-04-15T17:33:21.203Z,16.80
2018-04-15T17:35:48.723Z,16.80
2018-04-15T17:38:16.266Z,16.70
2018-04-15T17:40:43.852Z,16.70
2018-04-15T17:43:12.319Z,16.60
2018-04-15T17:45:39.825Z,16.60
2018-04-15T17:48:07.345Z,16.50
2018-04-15T17:50:34.832Z,16.40
2018-04-15T17:53:02.385Z,16.30
2018-04-15T17:55:29.870Z,16.20
2018-04-15T17:57:57.391Z,16.00
2018-04-15T18:00:24.937Z,15.90
2018-04-15T18:02:53.608Z,15.70
2018-04-15T18:05:21.103Z,15.60
2018-04-15T18:07:48.626Z,15.50
2018-04-15T18:10:17.455Z,15.30
2018-04-15T18:12:44.978Z,15.20
2018-04-15T18:15:12.509Z,15.10
2018-04-15T18:17:43.990Z,14.90
2018-04-15T18:20:11.732Z,14.80
2018-04-15T18:22:39.278Z,14.70
2018-04-15T18:25:06.865Z,14.50
2018-04-15T18:27:35.138Z,14.20
2018-04-15T18:30:02.646Z,14.20
2018-04-15T18:32:30.191Z,14.10
2018-04-15T18:34:57.710Z,14.00
2018-04-15T18:37:25.250Z,13.90
2018-04-15T18:39:53.553Z,13.70
2018-04-15T18:42:24.395Z,13.70
2018-04-15T18:44:52.014Z,13.50
2018-04-15T18:47:19.497Z,13.40
2018-04-15T18:49:47.062Z,13.20
2018-04-15T18:52:14.557Z,13.10
2018-04-15T18:54:42.078Z,13.00
2018-04-15T18:57:09.572Z,12.90
2018-04-15T18:59:37.154Z,12.90
2018-04-15T19:02:04.638Z,12.90
2018-04-15T19:04:32.141Z,12.90
2018-04-15T19:06:59.630Z,12.90
2018-04-15T19:09:27.120Z,12.80
2018-04-15T19:11:54.641Z,12.80
2018-04-15T19:14:22.926Z,12.70
2018-04-15T19:16:50.480Z,12.70
2018-04-15T19:19:17.958Z,12.60
2018-04-15T19:21:45.480Z,12.50
2018-04-15T19:24:12.962Z,12.50
2018-04-15T19:26:40.573Z,12.50
2018-04-15T19:29:08.118Z,12.50
2018-04-15T19:31:35.664Z,12.50
2018-04-15T19:34:03.145Z,12.40
2018-04-15T19:36:30.704Z,12.40
2018-04-15T19:38:58.935Z,12.30
2018-04-15T19:41:26.484Z,12.30
2018-04-15T19:43:54.000Z,12.20
2018-04-15T19:46:22.566Z,12.20
2018-04-15T19:48:50.082Z,12.20
2018-04-15T19:51:17.575Z,12.10
2018-04-15T19:53:45.159Z,12.10
2018-04-15T19:56:12.658Z,12.10
2018-04-15T19:58:40.182Z,12.10
2018-04-15T20:01:07.702Z,12.10
2018-04-15T20:03:35.318Z,12.00
2018-04-15T20:06:03.578Z,11.90
2018-04-15T20:08:31.100Z,11.90
2018-04-15T20:10:58.695Z,11.90
2018-04-15T20:13:26.274Z,11.90
2018-04-15T20:15:53.886Z,11.90
2018-04-15T20:18:21.428Z,11.90
2018-04-15T20:20:48.978Z,11.80
2018-04-15T20:23:16.533Z,11.80
2018-04-15T20:25:44.033Z,11.80
2018-04-15T20:28:11.579Z,11.80
2018-04-15T20:30:39.138Z,11.90
2018-04-15T20:33:07.441Z,11.90
2018-04-15T20:35:34.967Z,11.90
2018-04-15T20:38:02.503Z,11.90
2018-04-15T20:40:30.021Z,11.90
2018-04-15T20:42:57.506Z,11.90
2018-04-15T20:45:25.844Z,11.90
2018-04-15T20:47:53.346Z,11.90
2018-04-15T20:50:20.874Z,11.90
2018-04-15T20:52:48.393Z,11.90
2018-04-15T20:55:15.981Z,11.90
2018-04-15T20:57:43.578Z,11.90
2018-04-15T21:00:11.103Z,11.90
2018-04-15T21:02:38.638Z,11.90
2018-04-15T21:05:06.168Z,11.90
2018-04-15T21:07:33.785Z,11.90
2018-04-15T21:10:01.435Z,12.00
2018-04-15T21:12:28.932Z,12.00
2018-04-15T21:14:56.425Z,12.00
2018-04-15T21:17:24.003Z,12.00
2018-04-15T21:19:51.547Z,12.00
2018-04-15T21:22:19.790Z,12.00
2018-04-15T21:24:47.278Z,12.00
2018-04-15T21:27:15.560Z,11.90
2018-04-15T21:29:43.814Z,11.80
2018-04-15T21:32:11.330Z,11.80
2018-04-15T21:34:39.575Z,11.80
2018-04-15T21:37:07.100Z,11.80
2018-04-15T21:39:34.587Z,11.80
2018-04-15T21:42:02.109Z,11.70
2018-04-15T21:44:29.598Z,11.80
2018-04-15T21:46:57.939Z,11.90
2018-04-15T21:49:25.422Z,11.90
2018-04-15T21:51:52.955Z,11.90
2018-04-15T21:54:20.459Z,11.90
2018-04-15T21:56:47.983Z,12.00
2018-04-15T21:59:16.233Z,11.90
2018-04-15T22:01:43.754Z,11.90
2018-04-15T22:04:11.275Z,11.80
2018-04-15T22:06:38.761Z,11.80
2018-04-15T22:09:06.285Z,11.70
2018-04-15T22:11:45.497Z,11.70
2018-04-15T22:14:13.786Z,11.60
2018-04-15T22:16:42.044Z,11.60
2018-04-15T22:19:09.571Z,11.50
2018-04-15T22:21:37.099Z,11.50
2018-04-15T22:24:04.626Z,11.50
2018-04-15T22:26:32.109Z,11.40
2018-04-15T22:28:59.629Z,11.40
2018-04-15T22:31:27.877Z,11.20
2018-04-15T22:33:55.434Z,11.20
2018-04-15T22:36:22.922Z,11.20
2018-04-15T22:38:50.488Z,11.10
2018-04-15T22:41:17.938Z,11.10
2018-04-15T22:43:45.477Z,11.20
2018-04-15T22:46:13.740Z,11.20
2018-04-15T22:48:45.255Z,11.20
2018-04-15T22:51:12.746Z,11.20
2018-04-15T22:53:40.230Z,11.20
2018-04-15T22:56:09.715Z,11.10
2018-04-15T22:58:42.988Z,11.00
2018-04-15T23:01:10.514Z,11.00
2018-04-15T23:03:37.999Z,11.00
2018-04-15T23:06:05.519Z,11.00
2018-04-15T23:08:33.765Z,11.00
2018-04-15T23:11:01.289Z,11.00
2018-04-15T23:13:28.767Z,11.00
2018-04-15T23:15:59.862Z,11.00
2018-04-15T23:18:27.345Z,11.00
2018-04-15T23:20:54.878Z,11.10
2018-04-15T23:23:22.366Z,11.20
2018-04-15T23:25:49.890Z,11.30
2018-04-15T23:28:18.142Z,11.30
2018-04-15T23:30:45.655Z,11.30
2018-04-15T23:33:13.913Z,11.10
2018-04-15T23:35:41.446Z,11.10
2018-04-15T23:38:08.934Z,11.00
2018-04-15T23:40:36.471Z,10.90
2018-04-15T23:43:03.976Z,10.70
2018-04-15T23:45:32.275Z,10.60
2018-04-15T23:47:59.802Z,10.60
2018-04-15T23:50:27.293Z,10.60
2018-04-15T23:52:54.810Z,10.50
2018-04-15T23:55:22.308Z,10.50
2018-04-15T23:57:49.835Z,10.40
